createdAt,value
2022-09-10T00:01:20.218Z,97018.59
2022-09-10T00:03:49.663Z,97012.84
2022-09-10T00:06:19.718Z,97018.16
2022-09-10T00:08:47.845Z,97021.44
2022-09-10T00:11:21.272Z,97015.69
2022-09-10T00:13:49.799Z,97020.00
2022-09-10T00:16:21.311Z,97014.84
2022-09-10T00:18:49.318Z,97022.78
2022-09-10T00:21:19.200Z,97014.84
2022-09-10T00:23:46.502Z,97006.63
2022-09-10T00:26:22.382Z,97009.53
2022-09-10T00:29:00.204Z,97009.78
2022-09-10T00:31:30.081Z,96999.97
2022-09-10T00:33:59.645Z,97001.75
2022-09-10T00:36:30.074Z,97011.16
2022-09-10T00:39:00.905Z,97005.03
2022-09-10T00:41:29.149Z,96997.22
2022-09-10T00:44:05.334Z,97000.91
2022-09-10T00:46:44.094Z,97002.56
2022-09-10T00:49:21.061Z,97001.31
2022-09-10T00:51:52.177Z,96997.22
2022-09-10T00:54:25.367Z,96992.72
2022-09-10T00:56:55.659Z,96990.66
2022-09-10T00:59:27.120Z,96986.97
2022-09-10T01:02:00.310Z,96992.09
2022-09-10T01:04:33.260Z,96987.78
2022-09-10T01:07:01.735Z,96986.97
2022-09-10T01:09:30.309Z,96984.94
2022-09-10T01:12:17.452Z,96978.72
2022-09-10T01:14:48.204Z,96978.72
2022-09-10T01:17:22.100Z,96979.72
2022-09-10T01:20:25.413Z,96977.47
2022-09-10T01:23:17.721Z,96982.81
2022-09-10T01:25:51.982Z,96979.81
2022-09-10T01:28:35.220Z,96983.56
2022-09-10T01:31:41.128Z,96979.13
2022-09-10T01:34:19.681Z,96977.22
2022-09-10T01:36:52.381Z,96975.44
2022-09-10T01:39:24.479Z,96967.59
2022-09-10T01:41:55.377Z,96967.97
2022-09-10T01:44:47.928Z,96973.72
2022-09-10T01:47:22.639Z,96967.59
2022-09-10T01:50:02.829Z,96967.72
2022-09-10T01:52:40.009Z,96960.13
2022-09-10T01:55:23.026Z,96955.13
2022-09-10T01:57:53.472Z,96962.47
2022-09-10T02:00:24.904Z,96965.91
2022-09-10T02:03:16.781Z,96963.63
2022-09-10T02:05:51.341Z,96966.66
2022-09-10T02:08:31.385Z,96972.00
2022-09-10T02:11:01.888Z,96975.66
2022-09-10T02:13:30.754Z,96971.34
2022-09-10T02:16:00.155Z,96968.22
2022-09-10T02:18:28.047Z,96965.13
2022-09-10T02:20:58.846Z,96969.84
2022-09-10T02:23:46.784Z,96963.03
2022-09-10T02:26:17.403Z,96962.59
2022-09-10T02:28:45.897Z,96965.00
2022-09-10T02:31:14.278Z,96967.03
2022-09-10T02:33:41.806Z,96968.50
2022-09-10T02:36:09.637Z,96975.28
2022-09-10T02:38:37.485Z,96984.25
2022-09-10T02:41:05.517Z,96986.66
2022-09-10T02:43:36.436Z,96973.34
2022-09-10T02:46:08.042Z,96976.38
2022-09-10T02:48:35.810Z,96987.41
2022-09-10T02:51:03.591Z,96980.44
2022-09-10T02:53:32.661Z,96988.53
2022-09-10T02:56:01.489Z,96994.47
2022-09-10T02:58:31.716Z,96990.53
2022-09-10T03:01:19.474Z,96985.22
2022-09-10T03:03:56.877Z,96981.13
2022-09-10T03:06:26.252Z,96984.59
2022-09-10T03:08:58.320Z,96984.78
2022-09-10T03:11:28.464Z,96981.50
2022-09-10T03:13:56.639Z,96978.91
2022-09-10T03:16:24.793Z,96976.25
2022-09-10T03:18:55.200Z,96976.72
2022-09-10T03:21:25.826Z,96984.50
2022-09-10T03:24:11.492Z,96984.94
2022-09-10T03:26:40.954Z,96973.84
2022-09-10T03:29:08.991Z,96981.38
2022-09-10T03:31:36.659Z,96973.03
2022-09-10T03:34:04.846Z,96975.69
2022-09-10T03:36:31.871Z,96971.19
2022-09-10T03:38:59.324Z,96970.53
2022-09-10T03:41:38.100Z,96968.66
2022-09-10T03:44:06.916Z,96961.28
2022-09-10T03:46:34.862Z,96954.53
2022-09-10T03:49:03.814Z,96967.38
2022-09-10T03:51:32.216Z,96964.72
2022-09-10T03:54:00.105Z,96967.09
2022-09-10T03:56:28.758Z,96965.09
2022-09-10T03:58:55.882Z,96969.59
2022-09-10T04:01:22.959Z,96974.50
2022-09-10T04:04:06.947Z,96968.47
2022-09-10T04:06:35.817Z,96976.94
2022-09-10T04:09:09.395Z,96964.00
2022-09-10T04:11:36.612Z,96974.63
2022-09-10T04:14:03.944Z,96975.66
2022-09-10T04:16:32.871Z,96979.22
2022-09-10T04:19:00.127Z,96977.84
2022-09-10T04:21:28.816Z,96971.50
2022-09-10T04:24:01.317Z,96969.50
2022-09-10T04:26:28.522Z,96963.00
2022-09-10T04:29:00.344Z,96967.47
2022-09-10T04:31:27.439Z,96965.09
2022-09-10T04:33:55.655Z,96973.31
2022-09-10T04:36:22.690Z,96975.84
2022-09-10T04:38:50.108Z,96969.81
2022-09-10T04:41:20.197Z,96976.75
2022-09-10T04:43:47.473Z,96972.25
2022-09-10T04:46:14.616Z,96969.88
2022-09-10T04:48:52.795Z,96960.94
2022-09-10T04:51:31.061Z,96968.44
2022-09-10T04:53:59.795Z,96960.22
2022-09-10T04:56:26.793Z,96967.69
2022-09-10T04:59:02.891Z,96972.22
2022-09-10T05:01:30.786Z,96971.28
2022-09-10T05:03:57.768Z,96972.03
2022-09-10T05:06:25.562Z,96975.81
2022-09-10T05:08:52.467Z,96979.47
2022-09-10T05:11:20.014Z,96976.13
2022-09-10T05:13:50.352Z,96967.19
2022-09-10T05:16:17.813Z,96965.66
2022-09-10T05:18:45.377Z,96966.16
2022-09-10T05:21:13.035Z,96965.78
2022-09-10T05:24:00.272Z,96955.53
2022-09-10T05:26:31.054Z,96969.16
2022-09-10T05:28:59.984Z,96960.22
2022-09-10T05:31:28.573Z,96959.88
2022-09-10T05:33:56.305Z,96966.53
2022-09-10T05:36:23.256Z,96963.22
2022-09-10T05:38:51.378Z,96960.75
2022-09-10T05:44:33.641Z,96963.91
2022-09-10T05:47:01.037Z,96958.84
2022-09-10T05:49:30.510Z,96957.63
2022-09-10T05:51:58.323Z,96954.25
2022-09-10T05:54:25.813Z,96950.50
2022-09-10T05:56:52.813Z,96952.84
2022-09-10T05:59:21.019Z,96948.75
2022-09-10T06:01:48.731Z,96954.06
2022-09-10T06:05:53.184Z,96945.56
2022-09-10T06:08:23.283Z,96948.94
2022-09-10T06:11:02.912Z,96950.06
2022-09-10T06:13:31.445Z,96952.78
2022-09-10T06:16:06.310Z,96953.31
2022-09-10T06:18:39.079Z,96959.97
2022-09-10T06:21:18.831Z,96959.50
2022-09-10T06:23:46.373Z,96967.13
2022-09-10T06:26:14.525Z,96973.66
2022-09-10T06:28:43.063Z,96986.50
2022-09-10T06:31:17.338Z,96981.50
2022-09-10T06:33:45.433Z,96990.25
2022-09-10T06:36:13.023Z,96989.81
2022-09-10T06:38:40.919Z,96995.75
2022-09-10T06:41:12.238Z,96993.66
2022-09-10T06:43:41.762Z,96991.88
2022-09-10T06:46:50.900Z,96994.81
2022-09-10T06:49:03.967Z,96999.28
2022-09-10T06:51:33.753Z,96992.03
2022-09-10T06:54:10.976Z,96982.72
2022-09-10T06:56:39.468Z,96973.72
2022-09-10T06:59:08.128Z,96976.28
2022-09-10T07:01:36.508Z,96984.66
2022-09-10T07:04:04.510Z,96979.41
2022-09-10T07:06:36.094Z,96978.78
2022-09-10T07:09:05.397Z,96991.78
2022-09-10T07:11:33.412Z,96989.69
2022-09-10T07:14:02.439Z,96988.59
2022-09-10T07:16:33.609Z,96982.53
2022-09-10T07:19:03.940Z,96994.94
2022-09-10T07:21:40.419Z,96996.47
2022-09-10T07:24:13.251Z,96992.63
2022-09-10T07:26:41.983Z,96998.00
2022-09-10T07:29:10.756Z,97006.56
2022-09-10T07:31:42.625Z,97010.06
2022-09-10T07:34:10.829Z,97008.31
2022-09-10T07:36:42.013Z,97008.47
2022-09-10T07:39:15.113Z,97011.84
2022-09-10T07:41:48.522Z,97005.75
2022-09-10T07:44:16.703Z,97007.53
2022-09-10T07:46:44.754Z,97015.72
2022-09-10T07:49:16.164Z,97007.50
2022-09-10T07:51:44.116Z,96999.06
2022-09-10T07:54:12.632Z,97012.28
2022-09-10T07:56:40.885Z,97005.59
2022-09-10T07:59:09.105Z,96989.09
2022-09-10T08:01:38.864Z,97002.66
2022-09-10T08:04:27.669Z,96998.44
2022-09-10T08:07:05.845Z,97003.91
2022-09-10T08:09:34.814Z,97001.69
2022-09-10T08:12:03.937Z,96995.75
2022-09-10T08:14:34.199Z,97000.75
2022-09-10T08:17:02.906Z,96995.94
2022-09-10T08:19:31.730Z,96989.97
2022-09-10T08:22:13.501Z,96991.50
2022-09-10T08:24:42.586Z,96992.66
2022-09-10T08:27:12.892Z,96989.72
2022-09-10T08:29:42.097Z,96987.22
2022-09-10T08:32:14.028Z,96991.06
2022-09-10T08:34:45.595Z,96990.19
2022-09-10T08:37:14.592Z,96979.41
2022-09-10T08:39:43.783Z,96982.66
2022-09-10T08:42:32.151Z,96972.47
2022-09-10T08:45:08.080Z,96977.94
2022-09-10T08:48:25.269Z,96971.81
2022-09-10T08:51:17.071Z,96969.59
2022-09-10T08:54:33.350Z,96970.59
2022-09-10T08:56:54.566Z,96961.13
2022-09-10T08:59:34.556Z,96966.44
2022-09-10T09:02:47.172Z,96949.81
2022-09-10T09:05:26.962Z,96939.16
2022-09-10T09:07:59.416Z,96932.50
2022-09-10T09:10:36.259Z,96944.22
2022-09-10T09:13:29.048Z,96942.19
2022-09-10T09:16:21.593Z,96934.22
2022-09-10T09:18:49.810Z,96922.97
2022-09-10T09:21:23.243Z,96917.88
2022-09-10T09:24:17.237Z,96923.06
2022-09-10T09:26:51.118Z,96912.09
2022-09-10T09:29:28.814Z,96899.38
2022-09-10T09:32:19.242Z,96904.25
2022-09-10T09:35:24.898Z,96901.00
2022-09-10T09:38:08.201Z,96898.78
2022-09-10T09:40:57.320Z,96890.84
2022-09-10T09:44:10.595Z,96891.84
2022-09-10T09:46:39.591Z,96889.75
2022-09-10T09:49:18.566Z,96884.16
2022-09-10T09:51:49.926Z,96882.97
2022-09-10T09:55:12.512Z,96869.44
2022-09-10T09:57:33.354Z,96878.72
2022-09-10T10:00:37.446Z,96874.44
2022-09-10T10:03:22.107Z,96864.25
2022-09-10T10:05:52.995Z,96854.47
2022-09-10T10:08:31.588Z,96854.72
2022-09-10T10:11:01.251Z,96856.94
2022-09-10T10:13:48.903Z,96858.25
2022-09-10T10:16:36.789Z,96850.44
2022-09-10T10:19:25.364Z,96853.59
2022-09-10T10:22:00.948Z,96851.81
2022-09-10T10:24:33.592Z,96851.75
2022-09-10T10:27:03.459Z,96847.66
2022-09-10T10:29:32.116Z,96855.75
2022-09-10T10:32:05.489Z,96853.47
2022-09-10T10:34:57.238Z,96848.72
2022-09-10T10:37:36.967Z,96847.09
2022-09-10T10:40:20.530Z,96844.38
2022-09-10T10:43:37.102Z,96834.91
2022-09-10T10:46:38.175Z,96833.00
2022-09-10T10:49:31.068Z,96834.09
2022-09-10T10:52:36.935Z,96824.28
2022-09-10T10:55:27.278Z,96825.66
2022-09-10T10:58:17.880Z,96821.28
2022-09-10T11:00:56.098Z,96819.63
2022-09-10T11:03:59.129Z,96810.31
2022-09-10T11:06:36.671Z,96811.09
2022-09-10T11:09:18.174Z,96813.78
2022-09-10T11:12:02.092Z,96818.19
2022-09-10T11:15:20.019Z,96818.47
2022-09-10T11:18:14.615Z,96813.34
2022-09-10T11:21:09.432Z,96820.97
2022-09-10T11:23:52.699Z,96819.41
2022-09-10T11:26:52.784Z,96811.28
2022-09-10T11:29:45.138Z,96802.59
2022-09-10T11:32:41.393Z,96807.50
2022-09-10T11:35:23.947Z,96802.66
2022-09-10T11:38:25.859Z,96813.00
2022-09-10T11:41:28.831Z,96796.19
2022-09-10T11:44:36.918Z,96808.97
2022-09-10T11:47:24.643Z,96792.16
2022-09-10T11:50:20.672Z,96798.97
2022-09-10T11:52:58.865Z,96788.34
2022-09-10T11:56:01.551Z,96795.13
2022-09-10T11:59:04.477Z,96775.56
2022-09-10T12:02:20.216Z,96778.31
2022-09-10T12:04:49.390Z,96773.41
2022-09-10T12:08:25.894Z,96771.78
2022-09-10T12:11:42.404Z,96770.69
2022-09-10T12:14:20.427Z,96757.09
2022-09-10T12:17:07.816Z,96750.06
2022-09-10T12:19:48.767Z,96758.19
2022-09-10T12:22:34.313Z,96753.00
2022-09-10T12:25:31.764Z,96748.94
2022-09-10T12:28:08.897Z,96728.81
2022-09-10T12:30:40.338Z,96724.97
2022-09-10T12:33:18.396Z,96718.94
2022-09-10T12:35:51.485Z,96718.34
2022-09-10T12:38:59.537Z,96713.50
2022-09-10T12:41:28.584Z,96712.41
2022-09-10T12:44:03.722Z,96710.19
2022-09-10T12:47:22.998Z,96697.69
2022-09-10T12:49:54.727Z,96698.47
2022-09-10T12:52:50.701Z,96696.84
2022-09-10T12:56:05.527Z,96702.56
2022-09-10T12:59:19.365Z,96709.09
2022-09-10T13:01:57.331Z,96697.66
2022-09-10T13:04:43.119Z,96690.00
2022-09-10T13:07:56.569Z,96686.09
2022-09-10T13:10:35.424Z,96682.59
2022-09-10T13:13:25.746Z,96676.47
2022-09-10T13:16:30.165Z,96673.81
2022-09-10T13:19:15.219Z,96662.00
2022-09-10T13:21:47.280Z,96673.72
2022-09-10T13:24:37.896Z,96660.91
2022-09-10T13:27:55.054Z,96651.19
2022-09-10T13:30:28.711Z,96662.97
2022-09-10T13:33:12.973Z,96667.81
2022-09-10T13:36:33.739Z,96664.25
2022-09-10T13:39:15.024Z,96663.28
2022-09-10T13:42:15.517Z,96662.19
2022-09-10T13:48:02.729Z,96641.69
2022-09-10T13:50:59.654Z,96643.94
2022-09-10T13:56:26.779Z,96635.38
2022-09-10T13:59:03.195Z,96650.66
2022-09-10T14:01:53.188Z,96645.81
2022-09-10T14:04:31.956Z,96652.91
2022-09-10T14:07:15.958Z,96649.69
2022-09-10T14:09:57.711Z,96650.28
2022-09-10T14:12:38.848Z,96659.53
2022-09-10T14:15:12.247Z,96656.03
2022-09-10T14:17:49.010Z,96656.31
2022-09-10T14:23:26.581Z,96656.34
2022-09-10T14:26:35.348Z,96663.69
2022-09-10T14:29:24.772Z,96656.34
2022-09-10T14:31:55.439Z,96644.41
2022-09-10T14:34:37.212Z,96644.09
2022-09-10T14:37:38.870Z,96640.56
2022-09-10T14:40:36.977Z,96637.50
2022-09-10T14:43:17.178Z,96630.94
2022-09-10T14:45:51.263Z,96636.84
2022-09-10T14:51:49.743Z,96666.13
2022-09-10T14:54:30.318Z,96662.22
2022-09-10T14:58:00.035Z,96669.72
2022-09-10T15:00:35.194Z,96670.69
2022-09-10T15:03:05.783Z,96672.22
2022-09-10T15:05:41.385Z,96679.94
2022-09-10T15:08:31.480Z,96713.31
2022-09-10T15:11:01.564Z,96771.13
2022-09-10T15:13:33.037Z,96797.59
2022-09-10T15:16:10.662Z,96827.53
2022-09-10T15:18:48.775Z,96873.31
2022-09-10T15:21:29.219Z,96910.38
2022-09-10T15:24:07.560Z,96914.16
2022-09-10T15:27:05.929Z,96905.16
2022-09-10T15:30:03.201Z,96874.56
2022-09-10T15:32:32.376Z,96841.78
2022-09-10T15:35:02.973Z,96837.34
2022-09-10T15:37:36.262Z,96805.69
2022-09-10T15:40:15.769Z,96825.50
2022-09-10T15:42:54.146Z,96833.22
2022-09-10T15:45:31.091Z,96843.66
2022-09-10T15:48:04.645Z,96841.78
2022-09-10T15:50:34.709Z,96859.34
2022-09-10T15:53:11.910Z,96857.53
2022-09-10T15:55:41.013Z,96873.16
2022-09-10T16:00:59.804Z,96859.19
2022-09-10T16:03:33.083Z,96852.59
2022-09-10T16:06:06.727Z,96851.16
2022-09-10T16:08:40.533Z,96850.59
2022-09-10T16:11:14.107Z,96861.91
2022-09-10T16:13:54.136Z,96863.28
2022-09-10T16:16:27.258Z,96862.09
2022-09-10T16:18:58.430Z,96854.72
2022-09-10T16:21:34.352Z,96854.94
2022-09-10T16:24:10.349Z,96850.84
2022-09-10T16:26:48.009Z,96855.22
2022-09-10T16:29:24.930Z,96857.66
2022-09-10T16:31:58.219Z,96855.59
2022-09-10T16:34:31.663Z,96851.44
2022-09-10T16:37:01.645Z,96860.53
2022-09-10T16:39:31.485Z,96872.47
2022-09-10T16:42:16.410Z,96872.09
2022-09-10T16:44:46.129Z,96865.91
2022-09-10T16:47:15.741Z,96863.09
2022-09-10T16:49:45.415Z,96861.88
2022-09-10T16:52:15.208Z,96863.31
2022-09-10T16:54:47.308Z,96859.44
2022-09-10T16:57:16.855Z,96863.16
2022-09-10T16:59:49.286Z,96866.00
2022-09-10T17:02:21.865Z,96871.97
2022-09-10T17:04:51.791Z,96866.00
2022-09-10T17:10:03.401Z,96875.97
2022-09-10T17:12:32.634Z,96885.81
2022-09-10T17:15:01.631Z,96884.97
2022-09-10T17:17:32.005Z,96891.59
2022-09-10T17:20:02.070Z,96899.00
2022-09-10T17:22:36.796Z,96903.94
2022-09-10T17:25:05.727Z,96905.38
2022-09-10T17:27:36.066Z,96909.06
2022-09-10T17:30:05.015Z,96907.22
2022-09-10T17:32:33.952Z,96911.34
2022-09-10T17:35:03.063Z,96926.78
2022-09-10T17:37:33.583Z,96920.41
2022-09-10T17:40:02.746Z,96922.50
2022-09-10T17:42:34.689Z,96921.88
2022-09-10T17:45:05.681Z,96919.16
2022-09-10T17:47:35.460Z,96914.22
2022-09-10T17:50:04.502Z,96922.50
2022-09-10T17:52:35.246Z,96931.53
2022-09-10T17:55:04.309Z,96936.88
2022-09-10T17:57:33.587Z,96952.09
2022-09-10T18:00:02.677Z,96949.19
2022-09-10T18:02:32.476Z,96958.88
2022-09-10T18:05:01.931Z,96961.31
2022-09-10T18:07:30.417Z,96953.94
2022-09-10T18:09:59.248Z,96956.59
2022-09-10T18:12:27.612Z,96959.69
2022-09-10T18:14:56.486Z,96968.97
2022-09-10T18:17:25.839Z,96960.31
2022-09-10T18:20:00.398Z,96961.56
2022-09-10T18:22:29.419Z,96971.84
2022-09-10T18:24:57.996Z,96965.69
2022-09-10T18:27:29.159Z,96964.84
2022-09-10T18:29:58.500Z,96971.63
2022-09-10T18:32:28.320Z,96965.66
2022-09-10T18:34:56.791Z,96961.56
2022-09-10T18:37:25.675Z,96959.69
2022-09-10T18:39:55.326Z,96955.56
2022-09-10T18:42:25.722Z,96949.41
2022-09-10T18:44:54.417Z,96954.94
2022-09-10T18:47:43.525Z,96954.94
2022-09-10T18:50:12.167Z,96950.88
2022-09-10T18:52:40.639Z,96968.97
2022-09-10T18:55:10.307Z,96969.38
2022-09-10T18:57:39.411Z,96975.16
2022-09-10T19:00:11.563Z,96975.34
2022-09-10T19:02:40.946Z,96968.97
2022-09-10T19:05:12.384Z,96969.59
2022-09-10T19:07:41.352Z,96970.63
2022-09-10T19:10:10.027Z,96972.25
2022-09-10T19:12:38.956Z,96968.53
2022-09-10T19:15:08.342Z,96973.31
2022-09-10T19:17:37.581Z,96968.78
2022-09-10T19:20:06.913Z,96948.03
2022-09-10T19:22:38.411Z,96962.38
2022-09-10T19:25:07.770Z,96967.31
2022-09-10T19:27:38.125Z,96967.31
2022-09-10T19:30:07.562Z,96972.69
2022-09-10T19:32:36.279Z,96970.22
2022-09-10T19:35:05.379Z,96966.09
2022-09-10T19:37:34.280Z,96967.34
2022-09-10T19:40:05.766Z,96960.13
2022-09-10T19:42:34.801Z,96952.09
2022-09-10T19:45:13.844Z,96951.28
2022-09-10T19:47:49.356Z,96959.53
2022-09-10T19:50:23.123Z,96961.38
2022-09-10T19:52:54.726Z,96954.78
2022-09-10T19:55:24.955Z,96950.47
2022-09-10T19:58:00.864Z,96943.47
2022-09-10T20:00:45.810Z,96948.81
2022-09-10T20:03:15.988Z,96954.56
2022-09-10T20:05:45.519Z,96953.34
2022-09-10T20:08:15.005Z,96948.81
2022-09-10T20:10:54.822Z,96953.34
2022-09-10T20:13:25.943Z,96946.38
2022-09-10T20:15:57.991Z,96950.91
2022-09-10T20:18:30.858Z,96961.19
2022-09-10T20:21:17.072Z,96958.28
2022-09-10T20:23:49.072Z,96952.56
2022-09-10T20:26:23.645Z,96951.31
2022-09-10T20:28:59.666Z,96950.91
2022-09-10T20:31:30.904Z,96959.53
2022-09-10T20:34:01.805Z,96954.59
2022-09-10T20:36:34.778Z,96949.69
2022-09-10T20:39:04.754Z,96955.44
2022-09-10T20:41:36.352Z,96948.25
2022-09-10T20:44:07.858Z,96951.53
2022-09-10T20:46:36.390Z,96949.25
2022-09-10T20:49:05.079Z,96960.97
2022-09-10T20:51:39.606Z,96962.81
2022-09-10T20:54:17.263Z,96958.91
2022-09-10T20:56:46.610Z,96959.53
2022-09-10T20:59:23.231Z,96952.75
2022-09-10T21:01:54.673Z,96957.47
2022-09-10T21:04:27.867Z,96963.03
2022-09-10T21:06:57.832Z,96966.91
2022-09-10T21:09:26.108Z,96960.13
2022-09-10T21:11:55.077Z,96953.09
2022-09-10T21:14:26.779Z,96970.38
2022-09-10T21:16:55.930Z,96973.47
2022-09-10T21:19:27.906Z,96970.19
2022-09-10T21:21:59.384Z,96968.97
2022-09-10T21:24:28.818Z,96971.84
2022-09-10T21:26:57.046Z,96962.75
2022-09-10T21:29:34.913Z,96964.66
2022-09-10T21:32:04.644Z,96966.50
2022-09-10T21:34:33.432Z,96967.31
2022-09-10T21:37:01.908Z,96968.97
2022-09-10T21:39:30.567Z,96975.34
2022-09-10T21:42:02.522Z,96974.50
2022-09-10T21:44:32.928Z,96973.28
2022-09-10T21:47:01.825Z,96972.06
2022-09-10T21:49:30.157Z,96970.59
2022-09-10T21:52:07.304Z,96973.69
2022-09-10T21:54:37.747Z,96962.00
2022-09-10T21:57:12.025Z,96970.59
2022-09-10T21:59:42.462Z,96975.94
2022-09-10T22:02:11.844Z,96986.56
2022-09-10T22:04:41.417Z,96981.84
2022-09-10T22:07:11.460Z,96991.50
2022-09-10T22:09:39.995Z,96988.22
2022-09-10T22:12:08.409Z,96986.56
2022-09-10T22:14:39.819Z,96994.78
2022-09-10T22:17:15.402Z,96999.56
2022-09-10T22:19:43.539Z,96990.66
2022-09-10T22:22:12.406Z,96994.97
2022-09-10T22:24:40.510Z,96995.59
2022-09-10T22:27:09.503Z,97000.50
2022-09-10T22:29:37.649Z,96996.19
2022-09-10T22:32:06.397Z,96976.06
2022-09-10T22:34:42.024Z,96983.66
2022-09-10T22:37:10.493Z,96991.22
2022-09-10T22:39:38.879Z,97000.25
2022-09-10T22:42:08.639Z,96999.63
2022-09-10T22:44:36.744Z,96996.75
2022-09-10T22:47:14.747Z,97002.06
2022-09-10T22:49:43.311Z,96999.19
2022-09-10T22:52:12.884Z,97003.72
2022-09-10T22:54:41.406Z,96996.72
2022-09-10T22:57:10.075Z,97007.59
2022-09-10T22:59:39.441Z,96997.94
2022-09-10T23:02:07.618Z,96998.72
2022-09-10T23:04:35.907Z,97008.16
2022-09-10T23:07:07.121Z,97010.81
2022-09-10T23:09:35.838Z,97001.16
2022-09-10T23:12:04.925Z,97003.59
2022-09-10T23:14:34.060Z,97000.06
2022-09-10T23:17:02.532Z,96998.59
2022-09-10T23:19:38.844Z,97002.25
2022-09-10T23:22:07.598Z,97001.44
2022-09-10T23:24:36.310Z,96999.13
2022-09-10T23:27:05.110Z,97000.97
2022-09-10T23:29:33.567Z,96995.19
2022-09-10T23:32:02.147Z,96994.34
2022-09-10T23:34:30.494Z,96986.06
2022-09-10T23:36:58.905Z,96988.13
2022-09-10T23:39:27.883Z,96981.94
2022-09-10T23:41:59.489Z,96981.28
2022-09-10T23:44:29.474Z,96980.09
2022-09-10T23:46:58.717Z,96988.09
2022-09-10T23:49:26.980Z,96988.31
2022-09-10T23:51:55.246Z,96988.09
2022-09-10T23:54:23.447Z,96970.63
2022-09-10T23:56:52.284Z,96976.13
2022-09-10T23:59:21.124Z,96988.19
